LIMJ/GOA METAR and TAF weather

Enter ICAO airport designator
Station Type Date Time Source
LIMJ METAR 2021/01/17 17:50 UTC NOAA

LIMJ 171750Z 04013KT 9999 FEW025 07/01 Q1014


Station Type Date Time Source
LIMJ Decoded METAR 2021/01/17 17:50 UTC NOAA

Genova / Sestri, Italy (LIMJ) 44-25N 008-51E 3M
Jan 17, 2021 - 12:50 PM EST / 2021.01.17 1750 UTC
Wind: from the NE (040 degrees) at 15 MPH (13 KT):0
Visibility: greater than 7 mile(s):0
Sky conditions: mostly clear
Temperature: 44 F (7 C)
Dew Point: 33 F (1 C)
Relative Humidity: 65%
Pressure (altimeter): 29.94 in. Hg (1014 hPa)
ob: LIMJ 171750Z 04013KT 9999 FEW025 07/01 Q1014
cycle: 18

Station Type Date Time Source
LIMJ TAF 2021/01/17 18:22 UTC NOAA

TAF LIMJ 171700Z 1718/1818 05008KT 9999 SCT030

Example: see airport list